sensor_id;sensor_type;location;lat;lon;timestamp;temperature;humidity
39095;DHT22;24840;47.508;19.376;2023-04-24T00:00:11;7.50;99.90
39095;DHT22;24840;47.508;19.376;2023-04-24T00:02:40;7.60;99.90
39095;DHT22;24840;47.508;19.376;2023-04-24T00:05:07;7.50;99.90
39095;DHT22;24840;47.508;19.376;2023-04-24T00:07:34;7.60;99.90
39095;DHT22;24840;47.508;19.376;2023-04-24T00:10:01;7.60;99.90
39095;DHT22;24840;47.508;19.376;2023-04-24T00:12:27;7.50;99.90
39095;DHT22;24840;47.508;19.376;2023-04-24T00:14:53;7.50;99.90
39095;DHT22;24840;47.508;19.376;2023-04-24T00:17:19;7.50;99.90
39095;DHT22;24840;47.508;19.376;2023-04-24T00:19:48;7.60;99.90
39095;DHT22;24840;47.508;19.376;2023-04-24T00:22:16;7.50;99.90
39095;DHT22;24840;47.508;19.376;2023-04-24T00:24:43;7.60;99.90
39095;DHT22;24840;47.508;19.376;2023-04-24T00:27:08;7.60;99.90
39095;DHT22;24840;47.508;19.376;2023-04-24T00:29:34;7.60;99.90
39095;DHT22;24840;47.508;19.376;2023-04-24T00:32:00;7.60;99.90
39095;DHT22;24840;47.508;19.376;2023-04-24T00:34:26;7.50;99.90
39095;DHT22;24840;47.508;19.376;2023-04-24T00:36:52;7.50;99.90
39095;DHT22;24840;47.508;19.376;2023-04-24T00:39:21;7.50;99.90
39095;DHT22;24840;47.508;19.376;2023-04-24T00:41:48;7.50;99.90
39095;DHT22;24840;47.508;19.376;2023-04-24T00:44:16;7.60;99.90
39095;DHT22;24840;47.508;19.376;2023-04-24T00:46:42;7.60;99.90
39095;DHT22;24840;47.508;19.376;2023-04-24T00:49:08;7.60;99.90
39095;DHT22;24840;47.508;19.376;2023-04-24T00:51:34;7.70;99.90
39095;DHT22;24840;47.508;19.376;2023-04-24T00:54:00;7.90;99.90
39095;DHT22;24840;47.508;19.376;2023-04-24T00:56:27;7.90;99.90
39095;DHT22;24840;47.508;19.376;2023-04-24T00:58:53;7.90;99.90
39095;DHT22;24840;47.508;19.376;2023-04-24T01:01:22;8.00;99.90
39095;DHT22;24840;47.508;19.376;2023-04-24T01:03:51;8.00;99.90
39095;DHT22;24840;47.508;19.376;2023-04-24T01:06:19;8.10;99.90
39095;DHT22;24840;47.508;19.376;2023-04-24T01:08:46;8.20;99.90
39095;DHT22;24840;47.508;19.376;2023-04-24T01:11:12;8.30;99.90
39095;DHT22;24840;47.508;19.376;2023-04-24T01:13:38;8.30;99.90
39095;DHT22;24840;47.508;19.376;2023-04-24T01:16:05;8.30;99.90
39095;DHT22;24840;47.508;19.376;2023-04-24T01:18:30;8.30;99.90
39095;DHT22;24840;47.508;19.376;2023-04-24T01:21:00;8.20;99.90
39095;DHT22;24840;47.508;19.376;2023-04-24T01:23:29;8.30;99.90
39095;DHT22;24840;47.508;19.376;2023-04-24T01:25:55;8.30;99.90
39095;DHT22;24840;47.508;19.376;2023-04-24T01:28:21;8.30;99.90
39095;DHT22;24840;47.508;19.376;2023-04-24T01:30:47;8.30;99.90
39095;DHT22;24840;47.508;19.376;2023-04-24T01:33:13;8.20;99.90
39095;DHT22;24840;47.508;19.376;2023-04-24T01:35:39;8.30;99.90
39095;DHT22;24840;47.508;19.376;2023-04-24T01:38:05;8.30;99.90
39095;DHT22;24840;47.508;19.376;2023-04-24T01:40:32;8.30;99.90
39095;DHT22;24840;47.508;19.376;2023-04-24T01:42:58;8.40;99.90
39095;DHT22;24840;47.508;19.376;2023-04-24T01:45:24;8.40;99.90
39095;DHT22;24840;47.508;19.376;2023-04-24T01:47:50;8.40;99.90
39095;DHT22;24840;47.508;19.376;2023-04-24T01:50:16;8.50;99.90
39095;DHT22;24840;47.508;19.376;2023-04-24T01:52:42;8.40;99.90
39095;DHT22;24840;47.508;19.376;2023-04-24T01:55:08;8.40;99.90
39095;DHT22;24840;47.508;19.376;2023-04-24T01:57:35;8.40;99.90
39095;DHT22;24840;47.508;19.376;2023-04-24T02:00:02;8.50;99.90
39095;DHT22;24840;47.508;19.376;2023-04-24T02:02:32;8.60;99.90
39095;DHT22;24840;47.508;19.376;2023-04-24T02:04:58;8.60;99.90
39095;DHT22;24840;47.508;19.376;2023-04-24T02:07:24;8.60;99.90
39095;DHT22;24840;47.508;19.376;2023-04-24T02:09:49;8.60;99.90
39095;DHT22;24840;47.508;19.376;2023-04-24T02:12:16;8.50;99.90
39095;DHT22;24840;47.508;19.376;2023-04-24T02:14:43;8.40;99.90
39095;DHT22;24840;47.508;19.376;2023-04-24T02:17:09;8.40;99.90
39095;DHT22;24840;47.508;19.376;2023-04-24T02:19:35;8.40;99.90
39095;DHT22;24840;47.508;19.376;2023-04-24T02:22:00;8.40;99.90
39095;DHT22;24840;47.508;19.376;2023-04-24T02:24:26;8.40;99.90
39095;DHT22;24840;47.508;19.376;2023-04-24T02:26:52;8.50;99.90
39095;DHT22;24840;47.508;19.376;2023-04-24T02:29:18;8.50;99.90
39095;DHT22;24840;47.508;19.376;2023-04-24T02:31:43;8.50;99.90
39095;DHT22;24840;47.508;19.376;2023-04-24T02:34:09;8.60;99.90
39095;DHT22;24840;47.508;19.376;2023-04-24T02:36:35;8.60;99.90
39095;DHT22;24840;47.508;19.376;2023-04-24T02:39:01;8.70;99.90
39095;DHT22;24840;47.508;19.376;2023-04-24T02:41:27;8.70;99.90
39095;DHT22;24840;47.508;19.376;2023-04-24T02:43:57;8.60;99.90
39095;DHT22;24840;47.508;19.376;2023-04-24T02:46:23;8.50;99.90
39095;DHT22;24840;47.508;19.376;2023-04-24T02:48:49;8.60;99.90
39095;DHT22;24840;47.508;19.376;2023-04-24T02:51:15;8.70;99.90
39095;DHT22;24840;47.508;19.376;2023-04-24T02:53:41;8.80;99.90
39095;DHT22;24840;47.508;19.376;2023-04-24T02:56:06;8.70;99.90
39095;DHT22;24840;47.508;19.376;2023-04-24T02:58:32;8.50;99.90
39095;DHT22;24840;47.508;19.376;2023-04-24T03:00:58;8.60;99.90
39095;DHT22;24840;47.508;19.376;2023-04-24T03:03:24;8.70;99.90
39095;DHT22;24840;47.508;19.376;2023-04-24T03:05:50;8.70;99.90
39095;DHT22;24840;47.508;19.376;2023-04-24T03:08:15;8.60;99.90
39095;DHT22;24840;47.508;19.376;2023-04-24T03:10:41;8.70;99.90
39095;DHT22;24840;47.508;19.376;2023-04-24T03:13:07;8.80;99.90
39095;DHT22;24840;47.508;19.376;2023-04-24T03:15:33;8.90;99.90
39095;DHT22;24840;47.508;19.376;2023-04-24T03:17:58;8.90;99.90
39095;DHT22;24840;47.508;19.376;2023-04-24T03:20:26;9.00;99.90
39095;DHT22;24840;47.508;19.376;2023-04-24T03:22:51;8.90;99.90
39095;DHT22;24840;47.508;19.376;2023-04-24T03:25:17;8.90;99.90
39095;DHT22;24840;47.508;19.376;2023-04-24T03:27:43;9.00;99.90
39095;DHT22;24840;47.508;19.376;2023-04-24T03:30:09;9.00;99.90
39095;DHT22;24840;47.508;19.376;2023-04-24T03:32:35;9.10;99.90
39095;DHT22;24840;47.508;19.376;2023-04-24T03:35:00;9.20;99.90
39095;DHT22;24840;47.508;19.376;2023-04-24T03:37:26;9.10;99.90
39095;DHT22;24840;47.508;19.376;2023-04-24T03:39:52;9.10;99.90
39095;DHT22;24840;47.508;19.376;2023-04-24T03:42:18;9.10;99.90
39095;DHT22;24840;47.508;19.376;2023-04-24T03:44:43;9.10;99.90
39095;DHT22;24840;47.508;19.376;2023-04-24T03:47:09;9.10;99.90
39095;DHT22;24840;47.508;19.376;2023-04-24T03:49:35;9.20;99.90
39095;DHT22;24840;47.508;19.376;2023-04-24T03:52:01;9.20;99.90
39095;DHT22;24840;47.508;19.376;2023-04-24T03:54:27;9.20;99.90
39095;DHT22;24840;47.508;19.376;2023-04-24T03:56:53;9.20;99.90
39095;DHT22;24840;47.508;19.376;2023-04-24T03:59:18;9.10;99.90
39095;DHT22;24840;47.508;19.376;2023-04-24T04:01:44;9.20;99.90
39095;DHT22;24840;47.508;19.376;2023-04-24T04:04:11;9.10;99.90
39095;DHT22;24840;47.508;19.376;2023-04-24T04:06:37;9.10;99.90
39095;DHT22;24840;47.508;19.376;2023-04-24T04:09:03;9.20;99.90
39095;DHT22;24840;47.508;19.376;2023-04-24T04:11:29;9.20;99.90
39095;DHT22;24840;47.508;19.376;2023-04-24T04:13:55;9.20;99.90
39095;DHT22;24840;47.508;19.376;2023-04-24T04:16:22;9.10;99.90
39095;DHT22;24840;47.508;19.376;2023-04-24T04:18:48;9.20;99.90
39095;DHT22;24840;47.508;19.376;2023-04-24T04:21:14;9.20;99.90
39095;DHT22;24840;47.508;19.376;2023-04-24T04:23:40;9.20;99.90
39095;DHT22;24840;47.508;19.376;2023-04-24T04:26:06;9.20;99.90
39095;DHT22;24840;47.508;19.376;2023-04-24T04:28:32;9.30;99.90
39095;DHT22;24840;47.508;19.376;2023-04-24T04:30:57;9.20;99.90
39095;DHT22;24840;47.508;19.376;2023-04-24T04:33:24;9.20;99.90
39095;DHT22;24840;47.508;19.376;2023-04-24T04:35:50;9.20;99.90
39095;DHT22;24840;47.508;19.376;2023-04-24T04:38:22;9.20;99.90
39095;DHT22;24840;47.508;19.376;2023-04-24T04:40:48;9.30;99.90
39095;DHT22;24840;47.508;19.376;2023-04-24T04:43:14;9.40;99.90
39095;DHT22;24840;47.508;19.376;2023-04-24T04:45:42;9.30;99.90
39095;DHT22;24840;47.508;19.376;2023-04-24T04:48:09;9.30;99.90
39095;DHT22;24840;47.508;19.376;2023-04-24T04:50:35;9.30;99.90
39095;DHT22;24840;47.508;19.376;2023-04-24T04:53:01;9.50;99.90
39095;DHT22;24840;47.508;19.376;2023-04-24T04:55:27;9.60;99.90
39095;DHT22;24840;47.508;19.376;2023-04-24T04:57:52;9.70;99.90
39095;DHT22;24840;47.508;19.376;2023-04-24T05:00:18;9.70;99.90
39095;DHT22;24840;47.508;19.376;2023-04-24T05:02:44;9.80;99.90
39095;DHT22;24840;47.508;19.376;2023-04-24T05:05:10;9.80;99.90
39095;DHT22;24840;47.508;19.376;2023-04-24T05:07:36;9.80;99.90
39095;DHT22;24840;47.508;19.376;2023-04-24T05:10:02;9.80;99.90
39095;DHT22;24840;47.508;19.376;2023-04-24T05:12:28;9.80;99.90
39095;DHT22;24840;47.508;19.376;2023-04-24T05:14:53;10.00;99.90
39095;DHT22;24840;47.508;19.376;2023-04-24T05:17:19;10.10;99.90
39095;DHT22;24840;47.508;19.376;2023-04-24T05:19:46;10.20;99.90
39095;DHT22;24840;47.508;19.376;2023-04-24T05:22:12;10.20;99.90
39095;DHT22;24840;47.508;19.376;2023-04-24T05:24:37;10.20;99.90
39095;DHT22;24840;47.508;19.376;2023-04-24T05:27:04;10.20;99.90
39095;DHT22;24840;47.508;19.376;2023-04-24T05:29:33;10.30;99.90
39095;DHT22;24840;47.508;19.376;2023-04-24T05:31:59;10.40;99.90
39095;DHT22;24840;47.508;19.376;2023-04-24T05:34:25;10.40;99.90
39095;DHT22;24840;47.508;19.376;2023-04-24T05:36:51;10.40;99.90
39095;DHT22;24840;47.508;19.376;2023-04-24T05:39:17;10.40;99.90
39095;DHT22;24840;47.508;19.376;2023-04-24T05:41:43;10.40;99.90
39095;DHT22;24840;47.508;19.376;2023-04-24T05:44:09;10.50;99.90
39095;DHT22;24840;47.508;19.376;2023-04-24T05:46:35;10.40;99.90
39095;DHT22;24840;47.508;19.376;2023-04-24T05:49:01;10.50;99.90
39095;DHT22;24840;47.508;19.376;2023-04-24T05:51:27;10.60;99.90
39095;DHT22;24840;47.508;19.376;2023-04-24T05:53:53;10.50;99.90
39095;DHT22;24840;47.508;19.376;2023-04-24T05:56:19;10.60;99.90
39095;DHT22;24840;47.508;19.376;2023-04-24T05:58:46;10.60;99.90
39095;DHT22;24840;47.508;19.376;2023-04-24T06:01:12;10.70;99.90
39095;DHT22;24840;47.508;19.376;2023-04-24T06:03:40;10.90;99.90
39095;DHT22;24840;47.508;19.376;2023-04-24T06:06:07;11.10;99.90
39095;DHT22;24840;47.508;19.376;2023-04-24T06:08:33;11.10;99.90
39095;DHT22;24840;47.508;19.376;2023-04-24T06:10:59;11.20;99.90
39095;DHT22;24840;47.508;19.376;2023-04-24T06:13:25;11.40;99.90
39095;DHT22;24840;47.508;19.376;2023-04-24T06:15:51;11.50;99.90
39095;DHT22;24840;47.508;19.376;2023-04-24T06:18:17;11.60;99.90
39095;DHT22;24840;47.508;19.376;2023-04-24T06:20:43;11.60;99.90
39095;DHT22;24840;47.508;19.376;2023-04-24T06:23:08;11.70;99.90
39095;DHT22;24840;47.508;19.376;2023-04-24T06:25:34;11.70;99.90
39095;DHT22;24840;47.508;19.376;2023-04-24T06:28:00;11.70;99.90
39095;DHT22;24840;47.508;19.376;2023-04-24T06:30:27;11.60;99.90
39095;DHT22;24840;47.508;19.376;2023-04-24T06:32:53;11.60;99.90
39095;DHT22;24840;47.508;19.376;2023-04-24T06:35:19;11.60;99.90
39095;DHT22;24840;47.508;19.376;2023-04-24T06:37:45;11.70;99.90
39095;DHT22;24840;47.508;19.376;2023-04-24T06:40:11;11.70;99.90
39095;DHT22;24840;47.508;19.376;2023-04-24T06:42:37;11.80;99.90
39095;DHT22;24840;47.508;19.376;2023-04-24T06:45:03;11.80;99.90
39095;DHT22;24840;47.508;19.376;2023-04-24T06:47:29;11.80;99.90
39095;DHT22;24840;47.508;19.376;2023-04-24T06:49:55;12.10;99.90
39095;DHT22;24840;47.508;19.376;2023-04-24T06:52:21;12.30;99.90
39095;DHT22;24840;47.508;19.376;2023-04-24T06:54:47;12.30;99.90
39095;DHT22;24840;47.508;19.376;2023-04-24T06:57:12;12.50;99.90
39095;DHT22;24840;47.508;19.376;2023-04-24T06:59:38;12.40;99.90
39095;DHT22;24840;47.508;19.376;2023-04-24T07:02:04;12.50;99.90
39095;DHT22;24840;47.508;19.376;2023-04-24T07:04:30;12.50;99.90
39095;DHT22;24840;47.508;19.376;2023-04-24T07:06:56;12.50;99.90
39095;DHT22;24840;47.508;19.376;2023-04-24T07:09:24;12.40;99.90
39095;DHT22;24840;47.508;19.376;2023-04-24T07:11:54;12.40;99.90
39095;DHT22;24840;47.508;19.376;2023-04-24T07:14:22;12.40;99.90
39095;DHT22;24840;47.508;19.376;2023-04-24T07:16:48;12.40;99.90
39095;DHT22;24840;47.508;19.376;2023-04-24T07:19:13;12.40;99.90
39095;DHT22;24840;47.508;19.376;2023-04-24T07:21:39;12.40;99.90
39095;DHT22;24840;47.508;19.376;2023-04-24T07:24:05;12.40;99.90
39095;DHT22;24840;47.508;19.376;2023-04-24T07:26:34;12.50;99.90
39095;DHT22;24840;47.508;19.376;2023-04-24T07:29:00;12.50;99.90
39095;DHT22;24840;47.508;19.376;2023-04-24T07:31:26;12.50;99.90
39095;DHT22;24840;47.508;19.376;2023-04-24T07:33:52;12.50;99.90
39095;DHT22;24840;47.508;19.376;2023-04-24T07:36:18;12.60;99.90
39095;DHT22;24840;47.508;19.376;2023-04-24T07:38:48;12.60;99.90
39095;DHT22;24840;47.508;19.376;2023-04-24T07:41:14;12.50;99.90
39095;DHT22;24840;47.508;19.376;2023-04-24T07:43:40;12.50;99.90
39095;DHT22;24840;47.508;19.376;2023-04-24T07:46:07;12.50;99.90
39095;DHT22;24840;47.508;19.376;2023-04-24T07:48:32;12.70;99.90
39095;DHT22;24840;47.508;19.376;2023-04-24T07:50:58;12.80;99.90
39095;DHT22;24840;47.508;19.376;2023-04-24T07:53:24;12.90;99.90
39095;DHT22;24840;47.508;19.376;2023-04-24T07:55:50;12.90;99.90
39095;DHT22;24840;47.508;19.376;2023-04-24T07:58:17;12.90;99.90
39095;DHT22;24840;47.508;19.376;2023-04-24T08:00:42;12.90;99.90
39095;DHT22;24840;47.508;19.376;2023-04-24T08:03:08;12.90;99.90
39095;DHT22;24840;47.508;19.376;2023-04-24T08:05:34;13.00;99.90
39095;DHT22;24840;47.508;19.376;2023-04-24T08:08:00;13.00;99.90
39095;DHT22;24840;47.508;19.376;2023-04-24T08:10:25;13.10;99.90
39095;DHT22;24840;47.508;19.376;2023-04-24T08:12:51;13.20;99.90
39095;DHT22;24840;47.508;19.376;2023-04-24T08:15:17;13.20;99.90
39095;DHT22;24840;47.508;19.376;2023-04-24T08:17:43;13.40;99.90
39095;DHT22;24840;47.508;19.376;2023-04-24T08:20:10;13.50;99.90
39095;DHT22;24840;47.508;19.376;2023-04-24T08:22:42;13.80;99.90
39095;DHT22;24840;47.508;19.376;2023-04-24T08:25:10;13.70;99.90
39095;DHT22;24840;47.508;19.376;2023-04-24T08:27:36;13.70;99.90
39095;DHT22;24840;47.508;19.376;2023-04-24T08:30:05;14.10;99.90
39095;DHT22;24840;47.508;19.376;2023-04-24T08:32:31;14.50;99.90
39095;DHT22;24840;47.508;19.376;2023-04-24T08:34:57;15.10;99.90
39095;DHT22;24840;47.508;19.376;2023-04-24T08:37:23;15.40;99.90
39095;DHT22;24840;47.508;19.376;2023-04-24T08:39:50;15.40;99.90
39095;DHT22;24840;47.508;19.376;2023-04-24T08:42:17;15.50;99.90
39095;DHT22;24840;47.508;19.376;2023-04-24T08:44:43;15.40;99.90
39095;DHT22;24840;47.508;19.376;2023-04-24T08:47:10;15.10;99.90
39095;DHT22;24840;47.508;19.376;2023-04-24T08:49:37;15.10;99.90
39095;DHT22;24840;47.508;19.376;2023-04-24T08:52:08;15.20;99.90
39095;DHT22;24840;47.508;19.376;2023-04-24T08:54:34;15.00;99.90
39095;DHT22;24840;47.508;19.376;2023-04-24T08:57:01;15.10;99.90
39095;DHT22;24840;47.508;19.376;2023-04-24T08:59:29;15.20;99.90
39095;DHT22;24840;47.508;19.376;2023-04-24T09:01:55;15.30;99.90
39095;DHT22;24840;47.508;19.376;2023-04-24T09:04:23;15.60;99.90
39095;DHT22;24840;47.508;19.376;2023-04-24T09:06:59;16.00;99.90
39095;DHT22;24840;47.508;19.376;2023-04-24T09:09:25;16.20;99.90
39095;DHT22;24840;47.508;19.376;2023-04-24T09:11:52;16.50;99.90
39095;DHT22;24840;47.508;19.376;2023-04-24T09:14:21;16.60;99.90
39095;DHT22;24840;47.508;19.376;2023-04-24T09:16:48;16.80;99.90
39095;DHT22;24840;47.508;19.376;2023-04-24T09:19:14;17.60;99.90
39095;DHT22;24840;47.508;19.376;2023-04-24T09:21:40;17.70;99.90
39095;DHT22;24840;47.508;19.376;2023-04-24T09:24:14;17.40;99.90
39095;DHT22;24840;47.508;19.376;2023-04-24T09:26:40;17.20;99.90
39095;DHT22;24840;47.508;19.376;2023-04-24T09:29:06;18.00;99.90
39095;DHT22;24840;47.508;19.376;2023-04-24T09:31:31;18.30;99.90
39095;DHT22;24840;47.508;19.376;2023-04-24T09:34:05;18.20;99.90
39095;DHT22;24840;47.508;19.376;2023-04-24T09:36:40;19.00;99.90
39095;DHT22;24840;47.508;19.376;2023-04-24T09:39:14;19.20;97.90
39095;DHT22;24840;47.508;19.376;2023-04-24T09:41:55;18.60;96.90
39095;DHT22;24840;47.508;19.376;2023-04-24T09:44:25;18.20;98.50
39095;DHT22;24840;47.508;19.376;2023-04-24T09:46:56;18.60;98.90
39095;DHT22;24840;47.508;19.376;2023-04-24T09:49:26;18.60;96.90
39095;DHT22;24840;47.508;19.376;2023-04-24T09:52:09;18.80;99.40
39095;DHT22;24840;47.508;19.376;2023-04-24T09:54:35;18.60;97.50
39095;DHT22;24840;47.508;19.376;2023-04-24T09:57:04;19.30;96.40
39095;DHT22;24840;47.508;19.376;2023-04-24T09:59:30;20.00;97.50
39095;DHT22;24840;47.508;19.376;2023-04-24T10:01:56;20.00;93.80
39095;DHT22;24840;47.508;19.376;2023-04-24T10:04:28;20.80;92.30
39095;DHT22;24840;47.508;19.376;2023-04-24T10:06:57;20.90;91.10
39095;DHT22;24840;47.508;19.376;2023-04-24T10:09:25;21.40;92.40
39095;DHT22;24840;47.508;19.376;2023-04-24T10:11:52;20.90;90.60
39095;DHT22;24840;47.508;19.376;2023-04-24T10:14:27;20.50;91.60
39095;DHT22;24840;47.508;19.376;2023-04-24T10:16:55;20.10;92.20
39095;DHT22;24840;47.508;19.376;2023-04-24T10:19:26;19.30;93.00
39095;DHT22;24840;47.508;19.376;2023-04-24T10:21:52;19.10;93.30
39095;DHT22;24840;47.508;19.376;2023-04-24T10:24:20;19.30;94.10
39095;DHT22;24840;47.508;19.376;2023-04-24T10:26:48;19.70;95.40
39095;DHT22;24840;47.508;19.376;2023-04-24T10:29:16;19.80;91.80
39095;DHT22;24840;47.508;19.376;2023-04-24T10:31:42;19.30;90.70
39095;DHT22;24840;47.508;19.376;2023-04-24T10:34:10;19.30;90.30
39095;DHT22;24840;47.508;19.376;2023-04-24T10:36:40;20.00;87.90
39095;DHT22;24840;47.508;19.376;2023-04-24T10:39:09;20.20;90.20
39095;DHT22;24840;47.508;19.376;2023-04-24T10:41:39;20.30;86.20
39095;DHT22;24840;47.508;19.376;2023-04-24T10:46:31;19.50;89.70
39095;DHT22;24840;47.508;19.376;2023-04-24T10:48:57;19.60;84.80
39095;DHT22;24840;47.508;19.376;2023-04-24T10:51:26;19.50;87.90
39095;DHT22;24840;47.508;19.376;2023-04-24T10:54:36;19.60;88.50
39095;DHT22;24840;47.508;19.376;2023-04-24T10:59:52;19.20;88.40
39095;DHT22;24840;47.508;19.376;2023-04-24T11:02:38;19.30;90.20
39095;DHT22;24840;47.508;19.376;2023-04-24T11:05:06;18.90;87.40
39095;DHT22;24840;47.508;19.376;2023-04-24T11:08:13;19.00;89.90
39095;DHT22;24840;47.508;19.376;2023-04-24T11:10:47;18.90;89.30
39095;DHT22;24840;47.508;19.376;2023-04-24T11:13:16;18.70;89.10
39095;DHT22;24840;47.508;19.376;2023-04-24T11:15:42;18.40;89.40
39095;DHT22;24840;47.508;19.376;2023-04-24T11:18:15;18.40;90.80
39095;DHT22;24840;47.508;19.376;2023-04-24T11:20:45;18.30;91.50
39095;DHT22;24840;47.508;19.376;2023-04-24T11:23:13;18.20;91.40
39095;DHT22;24840;47.508;19.376;2023-04-24T11:25:39;18.10;91.80
39095;DHT22;24840;47.508;19.376;2023-04-24T11:28:05;18.20;91.70
39095;DHT22;24840;47.508;19.376;2023-04-24T11:30:32;18.10;92.30
39095;DHT22;24840;47.508;19.376;2023-04-24T11:33:05;18.10;92.00
39095;DHT22;24840;47.508;19.376;2023-04-24T11:35:36;18.10;93.80
39095;DHT22;24840;47.508;19.376;2023-04-24T11:38:04;18.00;93.60
39095;DHT22;24840;47.508;19.376;2023-04-24T11:40:30;18.00;92.70
39095;DHT22;24840;47.508;19.376;2023-04-24T11:42:56;17.90;92.70
39095;DHT22;24840;47.508;19.376;2023-04-24T11:45:30;17.90;92.00
39095;DHT22;24840;47.508;19.376;2023-04-24T11:47:56;17.90;91.80
39095;DHT22;24840;47.508;19.376;2023-04-24T11:50:25;17.90;91.80
39095;DHT22;24840;47.508;19.376;2023-04-24T11:52:53;18.20;92.00
39095;DHT22;24840;47.508;19.376;2023-04-24T11:57:50;18.80;93.90
39095;DHT22;24840;47.508;19.376;2023-04-24T12:00:23;19.00;92.00
39095;DHT22;24840;47.508;19.376;2023-04-24T12:02:50;18.90;90.70
39095;DHT22;24840;47.508;19.376;2023-04-24T12:05:35;19.40;92.90
39095;DHT22;24840;47.508;19.376;2023-04-24T12:08:01;19.50;91.80
39095;DHT22;24840;47.508;19.376;2023-04-24T12:10:28;19.20;91.60
39095;DHT22;24840;47.508;19.376;2023-04-24T12:12:56;19.20;93.90
39095;DHT22;24840;47.508;19.376;2023-04-24T12:15:22;19.00;92.30
39095;DHT22;24840;47.508;19.376;2023-04-24T12:17:51;18.90;93.40
39095;DHT22;24840;47.508;19.376;2023-04-24T12:20:20;18.60;92.80
39095;DHT22;24840;47.508;19.376;2023-04-24T12:22:53;18.50;93.40
39095;DHT22;24840;47.508;19.376;2023-04-24T12:25:24;18.10;93.20
39095;DHT22;24840;47.508;19.376;2023-04-24T12:28:10;17.90;94.00
39095;DHT22;24840;47.508;19.376;2023-04-24T12:30:54;17.70;94.70
39095;DHT22;24840;47.508;19.376;2023-04-24T12:33:20;17.30;97.50
39095;DHT22;24840;47.508;19.376;2023-04-24T12:35:48;16.80;99.90
39095;DHT22;24840;47.508;19.376;2023-04-24T12:38:15;16.60;99.90
39095;DHT22;24840;47.508;19.376;2023-04-24T12:40:42;16.30;99.90
39095;DHT22;24840;47.508;19.376;2023-04-24T12:43:19;16.10;99.90
39095;DHT22;24840;47.508;19.376;2023-04-24T12:45:47;15.60;99.90
39095;DHT22;24840;47.508;19.376;2023-04-24T12:48:13;15.60;99.90
39095;DHT22;24840;47.508;19.376;2023-04-24T12:50:39;15.20;99.90
39095;DHT22;24840;47.508;19.376;2023-04-24T12:53:07;15.10;99.90
39095;DHT22;24840;47.508;19.376;2023-04-24T12:55:34;15.10;99.90
39095;DHT22;24840;47.508;19.376;2023-04-24T12:57:59;15.40;99.90
39095;DHT22;24840;47.508;19.376;2023-04-24T13:00:25;15.70;99.90
39095;DHT22;24840;47.508;19.376;2023-04-24T13:02:51;15.70;99.90
39095;DHT22;24840;47.508;19.376;2023-04-24T13:05:17;16.10;99.90
39095;DHT22;24840;47.508;19.376;2023-04-24T13:07:42;16.20;99.90
39095;DHT22;24840;47.508;19.376;2023-04-24T13:10:08;16.30;99.90
39095;DHT22;24840;47.508;19.376;2023-04-24T13:12:35;16.40;99.90
39095;DHT22;24840;47.508;19.376;2023-04-24T13:15:01;16.90;99.90
39095;DHT22;24840;47.508;19.376;2023-04-24T13:17:26;17.10;99.90
39095;DHT22;24840;47.508;19.376;2023-04-24T13:19:54;17.50;99.90
39095;DHT22;24840;47.508;19.376;2023-04-24T13:22:20;17.70;99.90
39095;DHT22;24840;47.508;19.376;2023-04-24T13:24:46;17.90;99.90
39095;DHT22;24840;47.508;19.376;2023-04-24T13:27:15;18.80;99.90
39095;DHT22;24840;47.508;19.376;2023-04-24T13:29:41;18.00;99.90
39095;DHT22;24840;47.508;19.376;2023-04-24T13:32:08;17.90;99.90
39095;DHT22;24840;47.508;19.376;2023-04-24T13:34:34;18.30;99.90
39095;DHT22;24840;47.508;19.376;2023-04-24T13:37:03;18.40;99.90
39095;DHT22;24840;47.508;19.376;2023-04-24T13:39:33;18.30;99.90
39095;DHT22;24840;47.508;19.376;2023-04-24T13:41:59;18.70;99.90
39095;DHT22;24840;47.508;19.376;2023-04-24T13:44:25;18.20;99.90
39095;DHT22;24840;47.508;19.376;2023-04-24T13:46:52;17.60;99.90
39095;DHT22;24840;47.508;19.376;2023-04-24T13:49:20;17.60;99.90
39095;DHT22;24840;47.508;19.376;2023-04-24T13:51:46;17.40;99.90
39095;DHT22;24840;47.508;19.376;2023-04-24T13:54:14;17.00;99.90
39095;DHT22;24840;47.508;19.376;2023-04-24T13:56:40;16.80;99.90
39095;DHT22;24840;47.508;19.376;2023-04-24T13:59:06;16.70;99.90
39095;DHT22;24840;47.508;19.376;2023-04-24T14:01:32;16.80;99.90
39095;DHT22;24840;47.508;19.376;2023-04-24T14:03:58;16.70;99.90
39095;DHT22;24840;47.508;19.376;2023-04-24T14:06:24;16.50;99.90
39095;DHT22;24840;47.508;19.376;2023-04-24T14:08:50;16.50;99.90
39095;DHT22;24840;47.508;19.376;2023-04-24T14:11:17;16.50;99.90
39095;DHT22;24840;47.508;19.376;2023-04-24T14:13:43;16.40;99.90
39095;DHT22;24840;47.508;19.376;2023-04-24T14:16:10;16.40;99.90
39095;DHT22;24840;47.508;19.376;2023-04-24T14:18:36;16.30;99.90
39095;DHT22;24840;47.508;19.376;2023-04-24T14:21:02;16.40;99.90
39095;DHT22;24840;47.508;19.376;2023-04-24T14:23:28;16.40;99.90
39095;DHT22;24840;47.508;19.376;2023-04-24T14:25:54;16.30;99.90
39095;DHT22;24840;47.508;19.376;2023-04-24T14:28:20;16.40;99.90
39095;DHT22;24840;47.508;19.376;2023-04-24T14:30:47;16.30;99.90
39095;DHT22;24840;47.508;19.376;2023-04-24T14:33:13;16.40;99.90
39095;DHT22;24840;47.508;19.376;2023-04-24T14:35:40;16.40;99.90
39095;DHT22;24840;47.508;19.376;2023-04-24T14:38:07;16.50;99.90
39095;DHT22;24840;47.508;19.376;2023-04-24T14:40:33;16.30;99.90
39095;DHT22;24840;47.508;19.376;2023-04-24T14:42:59;16.20;99.90
39095;DHT22;24840;47.508;19.376;2023-04-24T14:45:25;16.20;99.90
39095;DHT22;24840;47.508;19.376;2023-04-24T14:47:52;16.50;99.90
39095;DHT22;24840;47.508;19.376;2023-04-24T14:50:18;16.50;99.90
39095;DHT22;24840;47.508;19.376;2023-04-24T14:52:43;16.40;99.90
39095;DHT22;24840;47.508;19.376;2023-04-24T14:55:09;16.30;99.90
39095;DHT22;24840;47.508;19.376;2023-04-24T14:57:35;16.20;99.90
39095;DHT22;24840;47.508;19.376;2023-04-24T15:00:03;16.10;99.90
39095;DHT22;24840;47.508;19.376;2023-04-24T15:02:32;15.90;99.90
39095;DHT22;24840;47.508;19.376;2023-04-24T15:04:59;15.90;99.90
39095;DHT22;24840;47.508;19.376;2023-04-24T15:07:25;15.70;99.90
39095;DHT22;24840;47.508;19.376;2023-04-24T15:09:51;15.70;99.90
39095;DHT22;24840;47.508;19.376;2023-04-24T15:12:16;15.60;99.90
39095;DHT22;24840;47.508;19.376;2023-04-24T15:14:42;15.50;99.90
39095;DHT22;24840;47.508;19.376;2023-04-24T15:17:08;15.30;99.90
39095;DHT22;24840;47.508;19.376;2023-04-24T15:19:34;15.20;99.90
39095;DHT22;24840;47.508;19.376;2023-04-24T15:22:00;15.20;99.90
39095;DHT22;24840;47.508;19.376;2023-04-24T15:24:26;14.90;99.90
39095;DHT22;24840;47.508;19.376;2023-04-24T15:26:51;14.80;99.90